sensor_id;sensor_type;location;lat;lon;timestamp;P1;durP1;ratioP1;P2;durP2;ratioP2
67372;SDS011;54257;54.496;18.412;2023-04-15T00:02:15;15.30;;;13.40;;
67372;SDS011;54257;54.496;18.412;2023-04-15T00:04:45;17.90;;;14.40;;
67372;SDS011;54257;54.496;18.412;2023-04-15T00:07:13;16.20;;;13.60;;
67372;SDS011;54257;54.496;18.412;2023-04-15T00:09:40;15.90;;;13.00;;
67372;SDS011;54257;54.496;18.412;2023-04-15T00:12:08;14.50;;;12.90;;
67372;SDS011;54257;54.496;18.412;2023-04-15T00:14:35;17.70;;;14.70;;
67372;SDS011;54257;54.496;18.412;2023-04-15T00:17:02;16.30;;;13.60;;
67372;SDS011;54257;54.496;18.412;2023-04-15T00:19:30;19.00;;;13.40;;
67372;SDS011;54257;54.496;18.412;2023-04-15T00:21:58;17.20;;;14.20;;
67372;SDS011;54257;54.496;18.412;2023-04-15T00:24:33;15.70;;;14.00;;
67372;SDS011;54257;54.496;18.412;2023-04-15T00:27:00;16.10;;;14.50;;
67372;SDS011;54257;54.496;18.412;2023-04-15T00:29:27;16.20;;;13.20;;
67372;SDS011;54257;54.496;18.412;2023-04-15T00:31:55;16.70;;;12.80;;
67372;SDS011;54257;54.496;18.412;2023-04-15T00:34:25;17.60;;;15.10;;
67372;SDS011;54257;54.496;18.412;2023-04-15T00:36:53;16.40;;;14.30;;
67372;SDS011;54257;54.496;18.412;2023-04-15T00:39:21;16.00;;;14.40;;
67372;SDS011;54257;54.496;18.412;2023-04-15T00:41:48;18.80;;;14.70;;
67372;SDS011;54257;54.496;18.412;2023-04-15T00:44:16;19.00;;;15.20;;
67372;SDS011;54257;54.496;18.412;2023-04-15T00:46:44;22.10;;;15.40;;
67372;SDS011;54257;54.496;18.412;2023-04-15T00:49:14;18.60;;;14.40;;
67372;SDS011;54257;54.496;18.412;2023-04-15T00:51:41;16.20;;;14.20;;
67372;SDS011;54257;54.496;18.412;2023-04-15T00:54:08;17.80;;;15.70;;
67372;SDS011;54257;54.496;18.412;2023-04-15T00:56:35;19.30;;;15.90;;
67372;SDS011;54257;54.496;18.412;2023-04-15T00:59:04;20.90;;;15.80;;
67372;SDS011;54257;54.496;18.412;2023-04-15T01:01:33;16.60;;;13.90;;
67372;SDS011;54257;54.496;18.412;2023-04-15T01:04:01;18.40;;;14.60;;
67372;SDS011;54257;54.496;18.412;2023-04-15T01:06:32;19.90;;;15.50;;
67372;SDS011;54257;54.496;18.412;2023-04-15T01:08:59;18.10;;;14.70;;
67372;SDS011;54257;54.496;18.412;2023-04-15T01:11:27;19.10;;;15.40;;
67372;SDS011;54257;54.496;18.412;2023-04-15T01:13:55;16.70;;;14.00;;
67372;SDS011;54257;54.496;18.412;2023-04-15T01:16:24;17.70;;;14.80;;
67372;SDS011;54257;54.496;18.412;2023-04-15T01:18:52;18.40;;;15.20;;
67372;SDS011;54257;54.496;18.412;2023-04-15T01:21:19;18.60;;;14.80;;
67372;SDS011;54257;54.496;18.412;2023-04-15T01:23:47;18.20;;;14.60;;
67372;SDS011;54257;54.496;18.412;2023-04-15T01:26:15;19.50;;;14.90;;
67372;SDS011;54257;54.496;18.412;2023-04-15T01:28:43;15.80;;;13.20;;
67372;SDS011;54257;54.496;18.412;2023-04-15T01:31:12;17.20;;;14.60;;
67372;SDS011;54257;54.496;18.412;2023-04-15T01:33:41;16.50;;;14.60;;
67372;SDS011;54257;54.496;18.412;2023-04-15T01:36:08;16.50;;;14.50;;
67372;SDS011;54257;54.496;18.412;2023-04-15T01:38:36;18.90;;;15.00;;
67372;SDS011;54257;54.496;18.412;2023-04-15T01:41:04;17.90;;;14.80;;
67372;SDS011;54257;54.496;18.412;2023-04-15T01:43:34;16.80;;;13.70;;
67372;SDS011;54257;54.496;18.412;2023-04-15T01:46:02;17.00;;;13.80;;
67372;SDS011;54257;54.496;18.412;2023-04-15T01:48:29;17.10;;;14.80;;
67372;SDS011;54257;54.496;18.412;2023-04-15T01:50:58;18.00;;;14.80;;
67372;SDS011;54257;54.496;18.412;2023-04-15T01:53:25;17.00;;;14.00;;
67372;SDS011;54257;54.496;18.412;2023-04-15T01:55:52;16.40;;;14.40;;
67372;SDS011;54257;54.496;18.412;2023-04-15T01:58:19;17.40;;;13.70;;
67372;SDS011;54257;54.496;18.412;2023-04-15T02:00:48;15.70;;;13.30;;
67372;SDS011;54257;54.496;18.412;2023-04-15T02:03:15;19.60;;;13.80;;
67372;SDS011;54257;54.496;18.412;2023-04-15T02:05:42;16.80;;;13.20;;
67372;SDS011;54257;54.496;18.412;2023-04-15T02:08:09;17.00;;;13.30;;
67372;SDS011;54257;54.496;18.412;2023-04-15T02:10:36;16.30;;;13.30;;
67372;SDS011;54257;54.496;18.412;2023-04-15T02:13:04;15.10;;;13.40;;
67372;SDS011;54257;54.496;18.412;2023-04-15T02:15:31;16.10;;;13.50;;
67372;SDS011;54257;54.496;18.412;2023-04-15T02:17:59;16.30;;;14.00;;
67372;SDS011;54257;54.496;18.412;2023-04-15T02:20:28;15.90;;;13.40;;
67372;SDS011;54257;54.496;18.412;2023-04-15T02:22:56;18.20;;;13.20;;
67372;SDS011;54257;54.496;18.412;2023-04-15T02:25:23;21.00;;;12.40;;
67372;SDS011;54257;54.496;18.412;2023-04-15T02:27:51;16.20;;;13.90;;
67372;SDS011;54257;54.496;18.412;2023-04-15T02:30:18;13.60;;;12.00;;
67372;SDS011;54257;54.496;18.412;2023-04-15T02:32:46;15.80;;;13.20;;
67372;SDS011;54257;54.496;18.412;2023-04-15T02:35:14;14.50;;;12.80;;
67372;SDS011;54257;54.496;18.412;2023-04-15T02:37:42;15.40;;;13.20;;
67372;SDS011;54257;54.496;18.412;2023-04-15T02:40:11;16.10;;;13.30;;
67372;SDS011;54257;54.496;18.412;2023-04-15T02:42:39;14.00;;;12.50;;
67372;SDS011;54257;54.496;18.412;2023-04-15T02:45:06;15.20;;;13.00;;
67372;SDS011;54257;54.496;18.412;2023-04-15T02:47:34;14.10;;;11.90;;
67372;SDS011;54257;54.496;18.412;2023-04-15T02:50:07;15.00;;;12.30;;
67372;SDS011;54257;54.496;18.412;2023-04-15T02:52:54;15.30;;;12.40;;
67372;SDS011;54257;54.496;18.412;2023-04-15T02:55:21;14.40;;;12.40;;
67372;SDS011;54257;54.496;18.412;2023-04-15T02:57:49;16.80;;;13.20;;
67372;SDS011;54257;54.496;18.412;2023-04-15T03:00:19;15.00;;;13.40;;
67372;SDS011;54257;54.496;18.412;2023-04-15T03:02:46;14.70;;;12.60;;
67372;SDS011;54257;54.496;18.412;2023-04-15T03:05:15;14.70;;;13.10;;
67372;SDS011;54257;54.496;18.412;2023-04-15T03:07:42;14.60;;;11.60;;
67372;SDS011;54257;54.496;18.412;2023-04-15T03:10:09;16.10;;;11.70;;
67372;SDS011;54257;54.496;18.412;2023-04-15T03:12:36;17.40;;;12.30;;
67372;SDS011;54257;54.496;18.412;2023-04-15T03:15:03;17.30;;;12.30;;
67372;SDS011;54257;54.496;18.412;2023-04-15T03:17:31;18.50;;;13.80;;
67372;SDS011;54257;54.496;18.412;2023-04-15T03:19:58;16.70;;;13.30;;
67372;SDS011;54257;54.496;18.412;2023-04-15T03:22:30;14.00;;;11.50;;
67372;SDS011;54257;54.496;18.412;2023-04-15T03:24:58;17.40;;;13.40;;
67372;SDS011;54257;54.496;18.412;2023-04-15T03:27:24;15.60;;;13.50;;
67372;SDS011;54257;54.496;18.412;2023-04-15T03:29:51;20.70;;;13.60;;
67372;SDS011;54257;54.496;18.412;2023-04-15T03:32:18;16.70;;;12.60;;
67372;SDS011;54257;54.496;18.412;2023-04-15T03:34:45;17.00;;;13.00;;
67372;SDS011;54257;54.496;18.412;2023-04-15T03:37:12;16.40;;;13.80;;
67372;SDS011;54257;54.496;18.412;2023-04-15T03:39:39;16.40;;;12.80;;
67372;SDS011;54257;54.496;18.412;2023-04-15T03:42:07;17.20;;;13.50;;
67372;SDS011;54257;54.496;18.412;2023-04-15T03:44:36;17.20;;;14.20;;
67372;SDS011;54257;54.496;18.412;2023-04-15T03:47:04;15.40;;;13.10;;
67372;SDS011;54257;54.496;18.412;2023-04-15T03:49:31;17.20;;;13.30;;
67372;SDS011;54257;54.496;18.412;2023-04-15T03:51:58;20.80;;;13.80;;
67372;SDS011;54257;54.496;18.412;2023-04-15T03:54:25;16.30;;;13.80;;
67372;SDS011;54257;54.496;18.412;2023-04-15T03:56:52;16.50;;;13.50;;
67372;SDS011;54257;54.496;18.412;2023-04-15T03:59:19;16.40;;;13.80;;
67372;SDS011;54257;54.496;18.412;2023-04-15T04:01:46;18.20;;;14.40;;
67372;SDS011;54257;54.496;18.412;2023-04-15T04:04:13;18.00;;;13.70;;
67372;SDS011;54257;54.496;18.412;2023-04-15T04:06:41;16.40;;;14.60;;
67372;SDS011;54257;54.496;18.412;2023-04-15T04:09:08;16.50;;;14.20;;
67372;SDS011;54257;54.496;18.412;2023-04-15T04:11:35;18.60;;;14.40;;
67372;SDS011;54257;54.496;18.412;2023-04-15T04:14:03;18.50;;;15.00;;
67372;SDS011;54257;54.496;18.412;2023-04-15T04:16:30;20.30;;;16.00;;
67372;SDS011;54257;54.496;18.412;2023-04-15T04:18:57;17.30;;;15.30;;
67372;SDS011;54257;54.496;18.412;2023-04-15T04:21:24;18.60;;;15.50;;
67372;SDS011;54257;54.496;18.412;2023-04-15T04:23:52;17.60;;;14.80;;
67372;SDS011;54257;54.496;18.412;2023-04-15T04:26:19;17.00;;;15.10;;
67372;SDS011;54257;54.496;18.412;2023-04-15T04:28:46;22.50;;;16.00;;
67372;SDS011;54257;54.496;18.412;2023-04-15T04:31:13;20.50;;;15.40;;
67372;SDS011;54257;54.496;18.412;2023-04-15T04:33:40;18.20;;;15.70;;
67372;SDS011;54257;54.496;18.412;2023-04-15T04:36:07;20.20;;;15.70;;
67372;SDS011;54257;54.496;18.412;2023-04-15T04:38:34;18.80;;;15.20;;
67372;SDS011;54257;54.496;18.412;2023-04-15T04:41:01;18.40;;;14.60;;
67372;SDS011;54257;54.496;18.412;2023-04-15T04:43:28;17.60;;;15.20;;
67372;SDS011;54257;54.496;18.412;2023-04-15T04:45:56;17.60;;;15.00;;
67372;SDS011;54257;54.496;18.412;2023-04-15T04:48:23;17.60;;;15.30;;
67372;SDS011;54257;54.496;18.412;2023-04-15T04:50:50;19.70;;;15.70;;
67372;SDS011;54257;54.496;18.412;2023-04-15T04:53:17;19.40;;;14.60;;
67372;SDS011;54257;54.496;18.412;2023-04-15T04:55:44;16.80;;;13.90;;
67372;SDS011;54257;54.496;18.412;2023-04-15T04:58:11;18.50;;;16.00;;
67372;SDS011;54257;54.496;18.412;2023-04-15T05:00:39;18.60;;;15.80;;
67372;SDS011;54257;54.496;18.412;2023-04-15T05:03:07;17.80;;;13.50;;
67372;SDS011;54257;54.496;18.412;2023-04-15T05:05:34;18.50;;;15.10;;
67372;SDS011;54257;54.496;18.412;2023-04-15T05:08:04;21.30;;;14.40;;
67372;SDS011;54257;54.496;18.412;2023-04-15T05:10:31;22.60;;;15.70;;
67372;SDS011;54257;54.496;18.412;2023-04-15T05:12:58;16.40;;;14.40;;
67372;SDS011;54257;54.496;18.412;2023-04-15T05:15:25;17.10;;;14.40;;
67372;SDS011;54257;54.496;18.412;2023-04-15T05:17:52;18.40;;;15.10;;
67372;SDS011;54257;54.496;18.412;2023-04-15T05:20:19;21.60;;;15.20;;
67372;SDS011;54257;54.496;18.412;2023-04-15T05:22:46;20.10;;;15.30;;
67372;SDS011;54257;54.496;18.412;2023-04-15T05:25:13;21.90;;;14.20;;
67372;SDS011;54257;54.496;18.412;2023-04-15T05:27:41;18.00;;;14.80;;
67372;SDS011;54257;54.496;18.412;2023-04-15T05:30:08;18.10;;;14.60;;
67372;SDS011;54257;54.496;18.412;2023-04-15T05:32:36;19.40;;;14.40;;
67372;SDS011;54257;54.496;18.412;2023-04-15T05:35:03;18.00;;;14.50;;
67372;SDS011;54257;54.496;18.412;2023-04-15T05:37:31;19.40;;;15.70;;
67372;SDS011;54257;54.496;18.412;2023-04-15T05:39:58;18.80;;;14.50;;
67372;SDS011;54257;54.496;18.412;2023-04-15T05:42:26;20.30;;;14.80;;
67372;SDS011;54257;54.496;18.412;2023-04-15T05:44:53;16.40;;;14.40;;
67372;SDS011;54257;54.496;18.412;2023-04-15T05:47:20;19.20;;;15.00;;
67372;SDS011;54257;54.496;18.412;2023-04-15T05:49:47;18.70;;;16.20;;
67372;SDS011;54257;54.496;18.412;2023-04-15T05:52:14;20.40;;;14.80;;
67372;SDS011;54257;54.496;18.412;2023-04-15T05:54:42;17.30;;;15.00;;
67372;SDS011;54257;54.496;18.412;2023-04-15T05:57:18;15.20;;;13.30;;
67372;SDS011;54257;54.496;18.412;2023-04-15T05:59:47;18.50;;;14.40;;
67372;SDS011;54257;54.496;18.412;2023-04-15T06:02:14;17.10;;;14.10;;
67372;SDS011;54257;54.496;18.412;2023-04-15T06:04:43;19.00;;;14.50;;
67372;SDS011;54257;54.496;18.412;2023-04-15T06:07:10;17.50;;;13.40;;
67372;SDS011;54257;54.496;18.412;2023-04-15T06:09:38;18.10;;;14.10;;
67372;SDS011;54257;54.496;18.412;2023-04-15T06:12:05;19.00;;;13.30;;
67372;SDS011;54257;54.496;18.412;2023-04-15T06:14:37;15.30;;;13.50;;
67372;SDS011;54257;54.496;18.412;2023-04-15T06:17:06;17.10;;;14.10;;
67372;SDS011;54257;54.496;18.412;2023-04-15T06:19:34;15.60;;;12.40;;
67372;SDS011;54257;54.496;18.412;2023-04-15T06:22:05;17.10;;;13.70;;
67372;SDS011;54257;54.496;18.412;2023-04-15T06:24:33;15.90;;;13.80;;
67372;SDS011;54257;54.496;18.412;2023-04-15T06:27:02;16.50;;;12.90;;
67372;SDS011;54257;54.496;18.412;2023-04-15T06:29:30;18.50;;;13.80;;
67372;SDS011;54257;54.496;18.412;2023-04-15T06:31:58;16.30;;;12.50;;
67372;SDS011;54257;54.496;18.412;2023-04-15T06:34:25;17.20;;;12.30;;
67372;SDS011;54257;54.496;18.412;2023-04-15T06:36:53;15.00;;;13.20;;
67372;SDS011;54257;54.496;18.412;2023-04-15T06:39:20;14.50;;;11.90;;
67372;SDS011;54257;54.496;18.412;2023-04-15T06:41:47;18.00;;;13.40;;
67372;SDS011;54257;54.496;18.412;2023-04-15T06:44:15;14.70;;;12.10;;
67372;SDS011;54257;54.496;18.412;2023-04-15T06:46:42;15.40;;;12.20;;
67372;SDS011;54257;54.496;18.412;2023-04-15T06:49:10;22.50;;;13.00;;
67372;SDS011;54257;54.496;18.412;2023-04-15T06:51:37;17.10;;;13.10;;
67372;SDS011;54257;54.496;18.412;2023-04-15T06:54:04;16.30;;;12.30;;
67372;SDS011;54257;54.496;18.412;2023-04-15T06:56:32;18.20;;;13.20;;
67372;SDS011;54257;54.496;18.412;2023-04-15T06:58:59;16.50;;;13.50;;
67372;SDS011;54257;54.496;18.412;2023-04-15T07:01:27;14.90;;;11.50;;
67372;SDS011;54257;54.496;18.412;2023-04-15T07:03:54;16.00;;;11.70;;
67372;SDS011;54257;54.496;18.412;2023-04-15T07:06:21;15.70;;;11.90;;
67372;SDS011;54257;54.496;18.412;2023-04-15T07:08:48;18.10;;;12.60;;
67372;SDS011;54257;54.496;18.412;2023-04-15T07:11:19;14.20;;;11.90;;
67372;SDS011;54257;54.496;18.412;2023-04-15T07:13:46;17.10;;;12.30;;
67372;SDS011;54257;54.496;18.412;2023-04-15T07:16:13;18.70;;;12.10;;
67372;SDS011;54257;54.496;18.412;2023-04-15T07:18:40;13.70;;;12.30;;
67372;SDS011;54257;54.496;18.412;2023-04-15T07:21:08;16.90;;;12.40;;
67372;SDS011;54257;54.496;18.412;2023-04-15T07:23:38;15.40;;;11.50;;
67372;SDS011;54257;54.496;18.412;2023-04-15T07:26:05;16.70;;;12.30;;
67372;SDS011;54257;54.496;18.412;2023-04-15T07:28:31;16.20;;;12.10;;
67372;SDS011;54257;54.496;18.412;2023-04-15T07:30:59;17.60;;;11.50;;
67372;SDS011;54257;54.496;18.412;2023-04-15T07:33:26;14.50;;;11.10;;
67372;SDS011;54257;54.496;18.412;2023-04-15T07:35:53;14.80;;;11.90;;
67372;SDS011;54257;54.496;18.412;2023-04-15T07:38:21;18.40;;;12.30;;
67372;SDS011;54257;54.496;18.412;2023-04-15T07:40:50;15.50;;;12.90;;
67372;SDS011;54257;54.496;18.412;2023-04-15T07:43:18;16.30;;;12.50;;
67372;SDS011;54257;54.496;18.412;2023-04-15T07:46:07;14.50;;;11.60;;
67372;SDS011;54257;54.496;18.412;2023-04-15T07:48:37;14.40;;;11.20;;
67372;SDS011;54257;54.496;18.412;2023-04-15T07:51:04;13.80;;;11.50;;
67372;SDS011;54257;54.496;18.412;2023-04-15T07:53:31;13.90;;;11.00;;
67372;SDS011;54257;54.496;18.412;2023-04-15T07:55:59;13.90;;;10.90;;
67372;SDS011;54257;54.496;18.412;2023-04-15T07:58:26;13.40;;;11.50;;
67372;SDS011;54257;54.496;18.412;2023-04-15T08:00:56;14.20;;;10.90;;
67372;SDS011;54257;54.496;18.412;2023-04-15T08:03:23;16.80;;;12.10;;
67372;SDS011;54257;54.496;18.412;2023-04-15T08:05:55;11.90;;;10.70;;
67372;SDS011;54257;54.496;18.412;2023-04-15T08:08:22;11.70;;;10.40;;
67372;SDS011;54257;54.496;18.412;2023-04-15T08:10:51;12.30;;;10.90;;
67372;SDS011;54257;54.496;18.412;2023-04-15T08:13:19;12.70;;;9.30;;
67372;SDS011;54257;54.496;18.412;2023-04-15T08:15:52;14.70;;;10.50;;
67372;SDS011;54257;54.496;18.412;2023-04-15T08:18:40;12.70;;;9.60;;
67372;SDS011;54257;54.496;18.412;2023-04-15T08:21:10;12.30;;;10.10;;
67372;SDS011;54257;54.496;18.412;2023-04-15T08:23:37;13.70;;;10.30;;
67372;SDS011;54257;54.496;18.412;2023-04-15T08:26:05;11.80;;;9.80;;
67372;SDS011;54257;54.496;18.412;2023-04-15T08:28:36;14.60;;;9.90;;
67372;SDS011;54257;54.496;18.412;2023-04-15T08:31:05;13.40;;;9.80;;
67372;SDS011;54257;54.496;18.412;2023-04-15T08:33:33;12.60;;;9.60;;
67372;SDS011;54257;54.496;18.412;2023-04-15T08:36:00;13.60;;;9.40;;
67372;SDS011;54257;54.496;18.412;2023-04-15T08:38:27;11.40;;;9.90;;
67372;SDS011;54257;54.496;18.412;2023-04-15T08:40:54;13.80;;;10.20;;
67372;SDS011;54257;54.496;18.412;2023-04-15T08:43:26;11.10;;;9.70;;
67372;SDS011;54257;54.496;18.412;2023-04-15T08:45:55;14.40;;;9.70;;
67372;SDS011;54257;54.496;18.412;2023-04-15T08:48:27;11.30;;;10.00;;
67372;SDS011;54257;54.496;18.412;2023-04-15T08:50:55;11.60;;;9.80;;
67372;SDS011;54257;54.496;18.412;2023-04-15T08:53:22;12.20;;;10.30;;
67372;SDS011;54257;54.496;18.412;2023-04-15T08:55:51;13.30;;;10.30;;
67372;SDS011;54257;54.496;18.412;2023-04-15T08:58:29;14.30;;;11.20;;
67372;SDS011;54257;54.496;18.412;2023-04-15T09:01:01;12.80;;;10.60;;
67372;SDS011;54257;54.496;18.412;2023-04-15T09:03:29;10.20;;;9.10;;
67372;SDS011;54257;54.496;18.412;2023-04-15T09:05:58;14.50;;;11.00;;
67372;SDS011;54257;54.496;18.412;2023-04-15T09:08:29;15.90;;;10.50;;
67372;SDS011;54257;54.496;18.412;2023-04-15T09:10:56;11.80;;;9.60;;
67372;SDS011;54257;54.496;18.412;2023-04-15T09:13:23;14.80;;;10.60;;
67372;SDS011;54257;54.496;18.412;2023-04-15T09:15:51;12.20;;;10.80;;
67372;SDS011;54257;54.496;18.412;2023-04-15T09:21:02;13.90;;;10.50;;
67372;SDS011;54257;54.496;18.412;2023-04-15T09:23:34;11.00;;;9.60;;
67372;SDS011;54257;54.496;18.412;2023-04-15T09:26:02;11.40;;;9.50;;
67372;SDS011;54257;54.496;18.412;2023-04-15T09:28:30;14.40;;;10.50;;
67372;SDS011;54257;54.496;18.412;2023-04-15T09:30:58;11.40;;;8.80;;
67372;SDS011;54257;54.496;18.412;2023-04-15T09:33:27;13.30;;;10.00;;
67372;SDS011;54257;54.496;18.412;2023-04-15T09:35:58;13.00;;;9.90;;
67372;SDS011;54257;54.496;18.412;2023-04-15T09:38:27;13.00;;;9.70;;
67372;SDS011;54257;54.496;18.412;2023-04-15T09:40:56;12.40;;;9.90;;
67372;SDS011;54257;54.496;18.412;2023-04-15T09:43:37;11.40;;;9.80;;
67372;SDS011;54257;54.496;18.412;2023-04-15T09:46:07;11.40;;;9.20;;
67372;SDS011;54257;54.496;18.412;2023-04-15T09:48:35;13.10;;;9.50;;
67372;SDS011;54257;54.496;18.412;2023-04-15T09:51:03;14.50;;;10.40;;
67372;SDS011;54257;54.496;18.412;2023-04-15T09:53:33;11.20;;;9.70;;
67372;SDS011;54257;54.496;18.412;2023-04-15T09:56:02;18.00;;;10.30;;
67372;SDS011;54257;54.496;18.412;2023-04-15T09:58:34;12.00;;;9.10;;
67372;SDS011;54257;54.496;18.412;2023-04-15T10:01:03;11.40;;;9.50;;
67372;SDS011;54257;54.496;18.412;2023-04-15T10:03:33;11.40;;;8.60;;
67372;SDS011;54257;54.496;18.412;2023-04-15T10:06:03;10.90;;;9.10;;
67372;SDS011;54257;54.496;18.412;2023-04-15T10:08:32;10.90;;;9.10;;
67372;SDS011;54257;54.496;18.412;2023-04-15T10:11:03;11.60;;;9.90;;
67372;SDS011;54257;54.496;18.412;2023-04-15T10:13:31;11.70;;;9.70;;
67372;SDS011;54257;54.496;18.412;2023-04-15T10:18:29;14.20;;;10.00;;
67372;SDS011;54257;54.496;18.412;2023-04-15T10:21:00;14.10;;;10.30;;
67372;SDS011;54257;54.496;18.412;2023-04-15T10:23:27;12.70;;;9.80;;
67372;SDS011;54257;54.496;18.412;2023-04-15T10:25:54;13.60;;;9.30;;
67372;SDS011;54257;54.496;18.412;2023-04-15T10:28:23;12.20;;;9.60;;
67372;SDS011;54257;54.496;18.412;2023-04-15T10:30:51;10.10;;;8.90;;
67372;SDS011;54257;54.496;18.412;2023-04-15T10:33:20;12.10;;;9.90;;
67372;SDS011;54257;54.496;18.412;2023-04-15T10:35:49;12.80;;;9.80;;
67372;SDS011;54257;54.496;18.412;2023-04-15T10:38:33;11.60;;;9.20;;
67372;SDS011;54257;54.496;18.412;2023-04-15T10:43:53;13.10;;;9.10;;
67372;SDS011;54257;54.496;18.412;2023-04-15T10:46:21;12.40;;;8.90;;
67372;SDS011;54257;54.496;18.412;2023-04-15T10:48:53;10.80;;;8.30;;
67372;SDS011;54257;54.496;18.412;2023-04-15T10:51:27;12.10;;;9.20;;
67372;SDS011;54257;54.496;18.412;2023-04-15T10:54:00;12.10;;;9.50;;
67372;SDS011;54257;54.496;18.412;2023-04-15T10:56:28;10.00;;;9.00;;
67372;SDS011;54257;54.496;18.412;2023-04-15T10:58:57;12.60;;;8.70;;
67372;SDS011;54257;54.496;18.412;2023-04-15T11:07:32;10.20;;;8.20;;
67372;SDS011;54257;54.496;18.412;2023-04-15T11:12:44;13.50;;;8.70;;
67372;SDS011;54257;54.496;18.412;2023-04-15T11:18:14;11.20;;;9.00;;
67372;SDS011;54257;54.496;18.412;2023-04-15T11:20:43;10.20;;;8.70;;
67372;SDS011;54257;54.496;18.412;2023-04-15T11:23:14;11.40;;;8.60;;
67372;SDS011;54257;54.496;18.412;2023-04-15T11:25:42;9.40;;;8.20;;
67372;SDS011;54257;54.496;18.412;2023-04-15T11:28:11;12.30;;;9.30;;
67372;SDS011;54257;54.496;18.412;2023-04-15T11:30:39;11.70;;;8.30;;
67372;SDS011;54257;54.496;18.412;2023-04-15T11:33:08;10.50;;;8.50;;
67372;SDS011;54257;54.496;18.412;2023-04-15T11:35:38;12.30;;;8.80;;
67372;SDS011;54257;54.496;18.412;2023-04-15T11:38:08;11.00;;;9.20;;
67372;SDS011;54257;54.496;18.412;2023-04-15T11:40:37;13.20;;;9.30;;
67372;SDS011;54257;54.496;18.412;2023-04-15T11:43:05;8.60;;;7.70;;
67372;SDS011;54257;54.496;18.412;2023-04-15T11:48:27;12.10;;;8.80;;
67372;SDS011;54257;54.496;18.412;2023-04-15T11:51:02;13.40;;;9.20;;
67372;SDS011;54257;54.496;18.412;2023-04-15T11:53:43;13.70;;;8.90;;
67372;SDS011;54257;54.496;18.412;2023-04-15T11:56:16;11.20;;;8.80;;
67372;SDS011;54257;54.496;18.412;2023-04-15T11:58:44;18.10;;;9.50;;
67372;SDS011;54257;54.496;18.412;2023-04-15T12:01:12;11.10;;;8.70;;
67372;SDS011;54257;54.496;18.412;2023-04-15T12:03:40;11.90;;;8.90;;
67372;SDS011;54257;54.496;18.412;2023-04-15T12:06:18;13.80;;;9.90;;
67372;SDS011;54257;54.496;18.412;2023-04-15T12:08:49;9.80;;;7.70;;
67372;SDS011;54257;54.496;18.412;2023-04-15T12:16:32;10.60;;;8.50;;
67372;SDS011;54257;54.496;18.412;2023-04-15T12:19:09;13.10;;;8.50;;
67372;SDS011;54257;54.496;18.412;2023-04-15T12:21:39;11.30;;;9.20;;
67372;SDS011;54257;54.496;18.412;2023-04-15T12:24:11;10.50;;;8.40;;
67372;SDS011;54257;54.496;18.412;2023-04-15T12:26:47;9.10;;;7.90;;
67372;SDS011;54257;54.496;18.412;2023-04-15T12:29:15;12.40;;;8.50;;
67372;SDS011;54257;54.496;18.412;2023-04-15T12:31:47;12.70;;;9.50;;
67372;SDS011;54257;54.496;18.412;2023-04-15T12:34:15;14.40;;;9.30;;
67372;SDS011;54257;54.496;18.412;2023-04-15T12:36:43;10.40;;;9.00;;
67372;SDS011;54257;54.496;18.412;2023-04-15T12:39:11;12.90;;;9.00;;
67372;SDS011;54257;54.496;18.412;2023-04-15T12:41:38;11.70;;;9.00;;
67372;SDS011;54257;54.496;18.412;2023-04-15T12:44:05;10.90;;;8.90;;
67372;SDS011;54257;54.496;18.412;2023-04-15T12:46:33;9.90;;;8.60;;
67372;SDS011;54257;54.496;18.412;2023-04-15T12:49:00;10.60;;;8.50;;
67372;SDS011;54257;54.496;18.412;2023-04-15T12:51:28;10.30;;;8.00;;
67372;SDS011;54257;54.496;18.412;2023-04-15T12:53:57;11.70;;;9.70;;
67372;SDS011;54257;54.496;18.412;2023-04-15T12:56:24;11.10;;;8.00;;
67372;SDS011;54257;54.496;18.412;2023-04-15T12:58:52;10.10;;;7.90;;
67372;SDS011;54257;54.496;18.412;2023-04-15T13:01:20;11.00;;;9.10;;
67372;SDS011;54257;54.496;18.412;2023-04-15T13:03:47;11.00;;;8.30;;
67372;SDS011;54257;54.496;18.412;2023-04-15T13:06:16;10.30;;;8.10;;
67372;SDS011;54257;54.496;18.412;2023-04-15T13:08:45;9.20;;;8.20;;
67372;SDS011;54257;54.496;18.412;2023-04-15T13:11:15;10.60;;;8.60;;
67372;SDS011;54257;54.496;18.412;2023-04-15T13:13:47;10.10;;;8.90;;
67372;SDS011;54257;54.496;18.412;2023-04-15T13:16:14;8.90;;;7.90;;
67372;SDS011;54257;54.496;18.412;2023-04-15T13:18:47;11.30;;;8.40;;
67372;SDS011;54257;54.496;18.412;2023-04-15T13:21:14;9.20;;;7.50;;
67372;SDS011;54257;54.496;18.412;2023-04-15T13:23:41;9.40;;;8.10;;
67372;SDS011;54257;54.496;18.412;2023-04-15T13:26:09;9.10;;;8.10;;
67372;SDS011;54257;54.496;18.412;2023-04-15T13:28:36;8.70;;;7.80;;
67372;SDS011;54257;54.496;18.412;2023-04-15T13:31:04;13.20;;;9.40;;
67372;SDS011;54257;54.496;18.412;2023-04-15T13:33:38;10.50;;;8.40;;
67372;SDS011;54257;54.496;18.412;2023-04-15T13:36:06;10.60;;;8.70;;
67372;SDS011;54257;54.496;18.412;2023-04-15T13:38:34;10.00;;;8.10;;
67372;SDS011;54257;54.496;18.412;2023-04-15T13:41:02;9.50;;;8.50;;
67372;SDS011;54257;54.496;18.412;2023-04-15T13:43:30;8.80;;;7.50;;
67372;SDS011;54257;54.496;18.412;2023-04-15T13:46:08;10.50;;;8.00;;
67372;SDS011;54257;54.496;18.412;2023-04-15T13:48:44;10.60;;;8.30;;
67372;SDS011;54257;54.496;18.412;2023-04-15T13:51:12;12.20;;;8.80;;
67372;SDS011;54257;54.496;18.412;2023-04-15T13:53:39;11.70;;;8.40;;
67372;SDS011;54257;54.496;18.412;2023-04-15T13:56:06;10.10;;;8.10;;
67372;SDS011;54257;54.496;18.412;2023-04-15T13:58:37;14.40;;;8.30;;
67372;SDS011;54257;54.496;18.412;2023-04-15T14:01:07;11.60;;;7.50;;
67372;SDS011;54257;54.496;18.412;2023-04-15T14:03:34;10.90;;;8.40;;
67372;SDS011;54257;54.496;18.412;2023-04-15T14:06:03;9.70;;;7.80;;
67372;SDS011;54257;54.496;18.412;2023-04-15T14:08:33;12.50;;;8.10;;
67372;SDS011;54257;54.496;18.412;2023-04-15T14:11:03;10.80;;;8.60;;
67372;SDS011;54257;54.496;18.412;2023-04-15T14:13:33;10.60;;;7.70;;
67372;SDS011;54257;54.496;18.412;2023-04-15T14:16:01;10.90;;;7.90;;
67372;SDS011;54257;54.496;18.412;2023-04-15T14:18:29;9.10;;;7.40;;
67372;SDS011;54257;54.496;18.412;2023-04-15T14:20:59;9.50;;;7.80;;
67372;SDS011;54257;54.496;18.412;2023-04-15T14:23:26;9.90;;;8.30;;
67372;SDS011;54257;54.496;18.412;2023-04-15T14:25:53;10.60;;;8.20;;
67372;SDS011;54257;54.496;18.412;2023-04-15T14:28:21;9.20;;;7.30;;
67372;SDS011;54257;54.496;18.412;2023-04-15T14:30:48;11.70;;;8.70;;
67372;SDS011;54257;54.496;18.412;2023-04-15T14:33:16;10.60;;;8.40;;
67372;SDS011;54257;54.496;18.412;2023-04-15T14:35:43;12.50;;;8.40;;
67372;SDS011;54257;54.496;18.412;2023-04-15T14:38:10;10.40;;;8.40;;
67372;SDS011;54257;54.496;18.412;2023-04-15T14:40:37;9.70;;;8.40;;
67372;SDS011;54257;54.496;18.412;2023-04-15T14:43:06;11.40;;;7.80;;
67372;SDS011;54257;54.496;18.412;2023-04-15T14:45:36;9.20;;;8.30;;
67372;SDS011;54257;54.496;18.412;2023-04-15T14:48:03;10.90;;;8.90;;
67372;SDS011;54257;54.496;18.412;2023-04-15T14:50:32;11.50;;;8.50;;